Herzlich willkommen!

Am freundlichen Bodensee-Flugplatz zwischen Schwarzwald, Rhein und Alpen.

Aktuelles

Bitte beachten Sie aus gegebenem Anlass auch unseren aktuellen Pilotenhinweis!

29.11.2020
Winterpause
In der Zeit von 14. Dezember 2020 bis 31. Januar 2021 hat der Flugplatz Konstanz Winterpause. PPR Tel. Erreichbarkeit unter 0172 7411981 oder 0170 5403107
— Flugleitung EDTZ

Live am Platz

Die Bilder unserer Webcams werden alle 5 Minuten aktualisiert.

Sonnenaufgang:

06:50 UTC / 07:50 Lokal

Sonnenuntergang:

15:35 UTC / 16:35 Lokal

METAR (02.12.2020 21:50 UTC):

EDNY 022050Z AUTO VRB02KT 9000 // OVC026/// M01/M03 Q1013
MVFR

TAF (02.12.2020 18:00 UTC):

TAF EDNY 021700Z 0218/0318 VRB03KT 9000 OVC025 TEMPO 0218/0304 4000 -SN OVC008 TEMPO 0304/0308 BKN010

Alle Angaben unverbindlich und ohne Gewähr. Zeiten genähert.

Für den Verkehrslandeplatz Konstanz werden keine offiziellen Wetterinformationen ausgegeben. Daher werden zur Orientierung Daten des nahegelegenen Flughafens Friedrichshafen dargestellt.